Time;durP1;ratioP1;P1;durP2;ratioP2;P2;SDS_P1;SDS_P2;PMS_P1;PMS_P2;Temp;Humidity;BMP_temperature;BMP_pressure;BME280_temperature;BME280_humidity;BME280_pressure;Samples;Min_cycle;Max_cycle;Signal;HPM_P1;HPM_P2
2024/01/10 00:01:01;;;;;;;0.10;0.10;;;;;;;-145.06;100.00;54759.25;10473200;28;20012;-70
2024/01/10 00:06:01;;;;;;;0.10;0.10;;;;;;;-145.06;100.00;54787.59;10461751;28;20020;-70
2024/01/10 00:11:01;;;;;;;0.10;0.10;;;;;;;-145.06;100.00;54753.16;10466076;28;20032;-70
2024/01/10 00:16:02;;;;;;;0.10;0.10;;;;;;;-145.06;100.00;54775.44;10469216;28;20267;-70
2024/01/10 00:21:02;;;;;;;0.20;0.20;;;;;;;-145.06;100.00;54751.16;10464537;28;20031;-70
2024/01/10 00:26:03;;;;;;;0.10;0.10;;;;;;;-145.06;100.00;54787.59;10463891;28;20618;-70
2024/01/10 00:31:04;;;;;;;0.20;0.20;;;;;;;-145.06;100.00;54783.56;10466971;28;20025;-70
2024/01/10 00:36:04;;;;;;;0.20;0.20;;;;;;;-145.06;100.00;54781.53;10441213;28;20033;-70
2024/01/10 00:41:04;;;;;;;0.10;0.10;;;;;;;-145.06;100.00;54828.13;10470642;28;20031;-70
2024/01/10 00:46:05;;;;;;;0.10;0.10;;;;;;;-145.06;100.00;54824.06;10469852;28;20037;-70
2024/01/10 00:51:08;;;;;;;0.10;0.10;;;;;;;-145.06;100.00;54822.03;10468664;28;20337;-70
2024/01/10 00:56:09;;;;;;;0.17;0.17;;;;;;;-145.06;100.00;54828.13;10465807;28;20028;-71
2024/01/10 01:01:09;;;;;;;0.17;0.17;;;;;;;-145.06;100.00;54840.28;10463729;28;20481;-70
2024/01/10 01:06:09;;;;;;;0.10;0.10;;;;;;;-145.06;100.00;54848.38;10455686;28;20037;-70
2024/01/10 01:11:09;;;;;;;0.10;0.10;;;;;;;-145.06;100.00;54844.31;10465095;28;20025;-71
2024/01/10 01:16:10;;;;;;;0.20;0.20;;;;;;;-145.06;100.00;54860.53;10454156;28;20021;-71
2024/01/10 01:21:11;;;;;;;0.10;0.10;;;;;;;-145.06;100.00;54852.44;10458199;28;20317;-70
2024/01/10 01:26:13;;;;;;;0.20;0.20;;;;;;;-145.06;100.00;54848.38;10466808;28;20057;-70
2024/01/10 01:31:13;;;;;;;0.10;0.10;;;;;;;-145.06;100.00;54880.78;10451677;28;20025;-71
2024/01/10 01:36:14;;;;;;;0.10;0.10;;;;;;;-145.06;100.00;54897.00;10453691;28;20079;-71
2024/01/10 01:41:15;;;;;;;0.10;0.10;;;;;;;-145.06;100.00;54878.75;10460858;28;20271;-71
2024/01/10 01:46:15;;;;;;;0.10;0.10;;;;;;;-145.06;100.00;54888.88;10468347;28;20067;-71
2024/01/10 01:51:17;;;;;;;0.20;0.20;;;;;;;-145.06;100.00;54903.06;10464702;28;20061;-71
2024/01/10 01:56:18;;;;;;;0.10;0.10;;;;;;;-145.06;100.00;54886.88;10460116;28;20406;-71
2024/01/10 02:01:21;;;;;;;0.17;0.17;;;;;;;-145.06;100.00;54913.19;10463990;28;20085;-70
2024/01/10 02:06:21;;;;;;;0.20;0.20;;;;;;;-145.06;100.00;54909.16;10460872;28;20379;-71
2024/01/10 02:11:23;;;;;;;0.10;0.10;;;;;;;-145.06;100.00;54907.13;10459293;28;20113;-70
2024/01/10 02:16:24;;;;;;;0.10;0.10;;;;;;;-145.06;100.00;54925.34;10458725;28;20600;-71
2024/01/10 02:21:24;;;;;;;0.10;0.10;;;;;;;-145.06;100.00;54917.25;10460144;28;20028;-70
2024/01/10 02:26:26;;;;;;;0.10;0.10;;;;;;;-145.06;100.00;54933.44;10465319;28;20050;-70
2024/01/10 02:31:27;;;;;;;0.10;0.10;;;;;;;-145.06;100.00;54931.44;10459534;28;20780;-70
2024/01/10 02:36:27;;;;;;;0.10;0.10;;;;;;;-145.06;100.00;54925.34;10454265;28;20025;-71
2024/01/10 02:41:27;;;;;;;0.20;0.20;;;;;;;-145.06;100.00;54925.34;10464255;28;20013;-70
2024/01/10 02:46:28;;;;;;;0.10;0.10;;;;;;;-145.06;100.00;54949.66;10465736;28;20260;-71
2024/01/10 02:51:30;;;;;;;0.10;0.10;;;;;;;-145.06;100.00;54949.66;10464811;28;20021;-70
2024/01/10 02:56:30;;;;;;;0.20;0.20;;;;;;;-145.06;100.00;54927.38;10460749;28;20021;-71
2024/01/10 03:01:30;;;;;;;0.13;0.13;;;;;;;-145.06;100.00;54959.78;10448447;28;20066;-70
2024/01/10 03:06:31;;;;;;;0.20;0.20;;;;;;;-145.06;100.00;54971.94;10461219;28;20506;-70
2024/01/10 03:11:33;;;;;;;0.10;0.10;;;;;;;-145.06;100.00;54939.53;10443205;28;20111;-71
2024/01/10 03:16:33;;;;;;;0.00;0.00;;;;;;;-145.06;100.00;54957.75;10458017;28;20329;-70
2024/01/10 03:21:33;;;;;;;0.10;0.10;;;;;;;-145.06;100.00;54961.81;10441450;28;20117;-70
2024/01/10 03:26:34;;;;;;;0.15;0.15;;;;;;;-145.06;100.00;54996.25;10458537;28;20260;-71
2024/01/10 03:31:34;;;;;;;0.10;0.10;;;;;;;-145.06;100.00;54986.13;10468874;28;20033;-70
2024/01/10 03:36:34;;;;;;;0.10;0.10;;;;;;;-145.06;100.00;54988.16;10461592;28;20036;-71
2024/01/10 03:41:35;;;;;;;0.10;0.10;;;;;;;-145.06;100.00;54980.03;10437971;28;20025;-70
2024/01/10 03:46:36;;;;;;;0.20;0.20;;;;;;;-145.06;100.00;54961.81;10461595;28;20017;-71
2024/01/10 03:51:37;;;;;;;0.10;0.10;;;;;;;-145.06;100.00;55000.31;10451211;28;20037;-70
2024/01/10 03:56:37;;;;;;;0.20;0.20;;;;;;;-145.06;100.00;55006.38;10462567;28;20040;-70
2024/01/10 04:01:39;;;;;;;0.15;0.15;;;;;;;-145.06;100.00;54973.97;10456391;28;20406;-70
2024/01/10 04:06:39;;;;;;;0.17;0.17;;;;;;;-145.06;100.00;54949.66;10456681;28;20028;-70
2024/01/10 04:11:39;;;;;;;0.20;0.20;;;;;;;-145.06;100.00;54955.72;10460856;28;20021;-71
2024/01/10 04:16:39;;;;;;;0.10;0.10;;;;;;;-145.06;100.00;54965.88;10459461;28;20322;-71
2024/01/10 04:21:40;;;;;;;0.17;0.17;;;;;;;-145.06;100.00;54998.28;10458854;28;20286;-70
2024/01/10 04:26:40;;;;;;;0.10;0.10;;;;;;;-145.06;100.00;54945.59;10460229;28;20505;-70
2024/01/10 04:31:42;;;;;;;0.20;0.20;;;;;;;-145.06;100.00;54990.19;10463599;28;20023;-70
2024/01/10 04:36:42;;;;;;;0.10;0.10;;;;;;;-145.06;100.00;54980.03;10460577;28;20514;-70
2024/01/10 04:41:42;;;;;;;0.20;0.20;;;;;;;-145.06;100.00;54990.19;10457227;28;20019;-70
2024/01/10 04:46:43;;;;;;;0.10;0.10;;;;;;;-145.06;100.00;54994.22;10458053;28;20078;-71
2024/01/10 04:51:43;;;;;;;0.10;0.10;;;;;;;-145.06;100.00;54978.03;10459777;28;20060;-70
2024/01/10 04:56:44;;;;;;;0.10;0.10;;;;;;;-145.06;100.00;55022.59;10442176;28;20260;-71
2024/01/10 05:01:44;;;;;;;0.10;0.10;;;;;;;-145.06;100.00;54986.13;10436151;28;20028;-70
2024/01/10 05:06:44;;;;;;;0.20;0.20;;;;;;;-145.06;100.00;55004.34;10458042;28;20021;-70
2024/01/10 05:11:50;;;;;;;0.10;0.10;;;;;;;-145.06;100.00;54969.91;10439922;28;20320;-70
2024/01/10 05:16:51;;;;;;;0.10;0.10;;;;;;;-145.06;100.00;54971.94;10458389;28;20056;-70
2024/01/10 05:21:52;;;;;;;0.10;0.10;;;;;;;-145.06;100.00;54967.88;10454490;28;20017;-70
2024/01/10 05:26:52;;;;;;;0.10;0.10;;;;;;;-145.06;100.00;54957.75;10460065;28;20043;-70
2024/01/10 05:31:52;;;;;;;0.10;0.10;;;;;;;-145.06;100.00;54998.28;10456458;28;20441;-70
2024/01/10 05:36:53;;;;;;;0.10;0.10;;;;;;;-145.06;100.00;54973.97;10459611;28;20036;-70
2024/01/10 05:41:54;;;;;;;0.10;0.10;;;;;;;-145.06;100.00;55012.47;10456777;28;20318;-70
2024/01/10 05:46:54;;;;;;;0.10;0.10;;;;;;;-145.06;100.00;54996.25;10456341;28;20021;-70
2024/01/10 05:51:54;;;;;;;0.10;0.10;;;;;;;-145.06;100.00;54994.22;10458564;28;20028;-71
2024/01/10 05:56:54;;;;;;;0.10;0.10;;;;;;;-145.06;100.00;55010.44;10455761;28;20321;-70
2024/01/10 06:01:55;;;;;;;0.10;0.10;;;;;;;-145.06;100.00;55044.88;10460304;28;20304;-70
2024/01/10 06:06:57;;;;;;;0.10;0.10;;;;;;;-145.06;100.00;55018.53;10455380;28;20776;-70
2024/01/10 06:11:57;;;;;;;0.20;0.20;;;;;;;-145.06;100.00;55026.63;10435280;28;20024;-70
2024/01/10 06:16:59;;;;;;;0.10;0.10;;;;;;;-145.06;100.00;55004.34;10459320;28;20401;-70
2024/01/10 06:21:59;;;;;;;0.10;0.10;;;;;;;-145.06;100.00;55042.84;10440230;28;20023;-70
2024/01/10 06:27:00;;;;;;;0.10;0.10;;;;;;;-145.06;100.00;55004.34;10455230;28;20024;-70
2024/01/10 06:32:01;;;;;;;0.00;0.00;;;;;;;-145.06;100.00;55010.44;10457536;28;20020;-70
2024/01/10 06:37:01;;;;;;;0.13;0.13;;;;;;;-145.06;100.00;55042.84;10437531;28;20321;-71
2024/01/10 06:42:03;;;;;;;0.20;0.20;;;;;;;-145.06;100.00;55046.91;10453019;28;20482;-71
2024/01/10 06:47:04;;;;;;;0.10;0.10;;;;;;;-145.06;100.00;55026.63;10453891;28;20070;-70
2024/01/10 06:52:06;;;;;;;0.10;0.10;;;;;;;-145.06;100.00;55075.25;10452915;28;20447;-70
2024/01/10 06:57:07;;;;;;;0.10;0.10;;;;;;;-145.06;100.00;55022.59;10454276;28;20509;-70
2024/01/10 07:02:07;;;;;;;0.10;0.10;;;;;;;-145.06;100.00;55050.94;10459455;28;20017;-70
2024/01/10 07:07:08;;;;;;;0.20;0.20;;;;;;;-145.06;100.00;55075.25;10452284;28;20494;-70
2024/01/10 07:12:08;;;;;;;0.17;0.17;;;;;;;-145.06;100.00;55063.09;10459682;28;20025;-70
2024/01/10 07:17:08;;;;;;;0.20;0.20;;;;;;;-145.06;100.00;55077.28;10450687;28;20020;-70
2024/01/10 07:22:10;;;;;;;0.17;0.17;;;;;;;-145.06;100.00;55087.41;10456952;28;20256;-70
2024/01/10 07:27:12;;;;;;;0.10;0.10;;;;;;;-145.06;100.00;55083.34;10458679;28;20275;-70
2024/01/10 07:32:13;;;;;;;0.10;0.10;;;;;;;-145.06;100.00;55061.06;10459439;28;20537;-70
2024/01/10 07:37:16;;;;;;;0.10;0.10;;;;;;;-145.06;100.00;55107.66;10457096;28;20025;-70
2024/01/10 07:42:18;;;;;;;0.25;0.25;;;;;;;-145.06;100.00;55107.66;10463039;28;20091;-70
2024/01/10 07:47:18;;;;;;;0.10;0.10;;;;;;;-145.06;100.00;55071.19;10443706;28;20683;-70
2024/01/10 07:52:19;;;;;;;0.17;0.17;;;;;;;-145.06;100.00;55093.47;10459457;28;20031;-70
2024/01/10 07:57:19;;;;;;;0.20;0.20;;;;;;;-145.06;100.00;55081.34;10463800;28;20031;-71
2024/01/10 08:02:19;;;;;;;0.20;0.20;;;;;;;-145.06;100.00;55091.47;10464273;28;20024;-71
2024/01/10 08:07:20;;;;;;;0.10;0.10;;;;;;;-145.06;100.00;55087.41;10445235;28;20052;-71
2024/01/10 08:12:20;;;;;;;0.17;0.17;;;;;;;-145.06;100.00;55077.28;10463519;28;20497;-70
2024/01/10 08:17:20;;;;;;;0.10;0.10;;;;;;;-145.06;100.00;55067.16;10462729;28;20743;-71
2024/01/10 08:22:20;;;;;;;0.10;0.10;;;;;;;-145.06;100.00;55044.88;10460575;28;20250;-70
2024/01/10 08:27:21;;;;;;;0.20;0.20;;;;;;;-145.06;100.00;55083.34;10439640;28;20111;-70
2024/01/10 08:32:21;;;;;;;0.10;0.10;;;;;;;-145.06;100.00;55081.34;10466223;28;20280;-70
2024/01/10 08:37:22;;;;;;;0.10;0.10;;;;;;;-145.06;100.00;55050.94;10464278;28;20027;-70
2024/01/10 08:42:23;;;;;;;0.20;0.20;;;;;;;-145.06;100.00;55083.34;10448837;28;20012;-70
2024/01/10 08:47:23;;;;;;;0.10;0.10;;;;;;;-145.06;100.00;55067.16;10464032;28;20027;-70
2024/01/10 08:52:23;;;;;;;0.15;0.15;;;;;;;-145.06;100.00;55050.94;10438762;28;20290;-70
2024/01/10 08:57:26;;;;;;;0.10;0.10;;;;;;;-145.06;100.00;55050.94;10468092;28;20025;-70
2024/01/10 09:02:27;;;;;;;0.17;0.17;;;;;;;-145.06;100.00;55057.03;10465676;28;20013;-70
2024/01/10 09:07:27;;;;;;;0.17;0.17;;;;;;;-145.06;100.00;55036.75;10461181;28;20036;-70
2024/01/10 09:12:28;;;;;;;0.15;0.15;;;;;;;-145.06;100.00;55038.78;10462543;28;20025;-70
2024/01/10 09:17:28;;;;;;;0.00;0.00;;;;;;;-145.06;100.00;55018.53;10461307;28;20099;-70
2024/01/10 09:22:28;;;;;;;0.10;0.10;;;;;;;-145.06;100.00;55030.69;10462304;28;20017;-70
2024/01/10 09:27:30;;;;;;;0.10;0.10;;;;;;;-145.06;100.00;55038.78;10466795;28;20012;-70
2024/01/10 09:32:30;;;;;;;0.10;0.10;;;;;;;-145.06;100.00;55050.94;10461630;28;20035;-70
2024/01/10 09:37:31;;;;;;;0.20;0.20;;;;;;;-145.06;100.00;55026.63;10463973;28;20040;-70
2024/01/10 09:42:33;;;;;;;0.10;0.10;;;;;;;-145.06;100.00;55026.63;10463026;28;20747;-70
2024/01/10 09:47:36;;;;;;;0.10;0.10;;;;;;;-145.06;100.00;55040.81;10457386;28;20051;-70
2024/01/10 09:52:49;;;;;;;0.10;0.10;;;;;;;-145.06;100.00;55000.31;10466161;28;20025;-70
2024/01/10 09:57:49;;;;;;;0.10;0.10;;;;;;;-145.06;100.00;55055.00;10461889;28;20024;-70
2024/01/10 10:02:51;;;;;;;0.15;0.15;;;;;;;-145.06;100.00;55010.44;10458606;28;20031;-69
2024/01/10 10:07:53;;;;;;;0.10;0.10;;;;;;;-145.06;100.00;55014.47;10460312;28;20016;-70
2024/01/10 10:12:53;;;;;;;0.00;0.00;;;;;;;-145.06;100.00;55020.56;10470303;28;20017;-70
2024/01/10 10:17:55;;;;;;;0.10;0.10;;;;;;;-145.06;100.00;55018.53;10454927;28;20428;-69
2024/01/10 10:23:03;;;;;;;0.15;0.15;;;;;;;-145.06;100.00;55032.72;10438196;28;20501;-69
2024/01/10 10:28:04;;;;;;;0.10;0.10;;;;;;;-145.06;100.00;55055.00;10456482;28;20024;-70
2024/01/10 10:33:07;;;;;;;0.10;0.10;;;;;;;-145.06;100.00;55073.22;10463963;28;20029;-70
2024/01/10 10:38:11;;;;;;;0.10;0.10;;;;;;;-145.06;100.00;55055.00;10434744;28;20119;-69
2024/01/10 10:43:16;;;;;;;0.10;0.10;;;;;;;-145.06;100.00;55036.75;10464892;28;20114;-70
2024/01/10 10:48:18;;;;;;;0.10;0.10;;;;;;;-145.06;100.00;55010.44;10458404;28;20032;-69
2024/01/10 10:53:20;;;;;;;0.05;0.05;;;;;;;-145.06;100.00;55008.41;10458380;28;20186;-70
2024/01/10 10:58:21;;;;;;;0.20;0.20;;;;;;;-145.06;100.00;55004.34;10452304;28;20028;-70
2024/01/10 11:03:24;;;;;;;0.00;0.00;;;;;;;-145.06;100.00;55022.59;10457587;28;20071;-69
2024/01/10 11:08:25;;;;;;;0.10;0.10;;;;;;;-145.06;100.00;55028.66;10433626;28;20020;-69
2024/01/10 11:13:47;;;;;;;0.00;0.00;;;;;;;-145.06;100.00;55008.41;10454259;28;20036;-70
2024/01/10 11:18:52;;;;;;;0.00;0.00;;;;;;;-145.06;100.00;55044.88;10469598;28;20032;-69
2024/01/10 11:23:57;;;;;;;0.10;0.10;;;;;;;-145.06;100.00;55018.53;10463031;28;20025;-69
2024/01/10 11:28:58;;;;;;;0.00;0.00;;;;;;;-145.06;100.00;55014.47;10465853;28;20478;-69
2024/01/10 11:34:00;;;;;;;0.10;0.10;;;;;;;-145.06;100.00;55071.19;10464509;28;20028;-69
2024/01/10 11:39:04;;;;;;;0.10;0.10;;;;;;;-145.06;100.00;55034.75;10461893;28;20047;-69
2024/01/10 11:44:17;;;;;;;0.10;0.10;;;;;;;-145.06;100.00;55026.63;10471018;28;20023;-69
2024/01/10 11:49:19;;;;;;;0.00;0.00;;;;;;;-145.06;100.00;55012.47;10468980;28;20039;-69
2024/01/10 11:54:45;;;;;;;0.00;0.00;;;;;;;-145.06;100.00;55024.59;10463105;28;20051;-69
2024/01/10 11:59:45;;;;;;;0.00;0.00;;;;;;;-145.06;100.00;55071.19;10450794;28;20093;-69
2024/01/10 12:04:47;;;;;;;0.10;0.10;;;;;;;-145.06;100.00;55030.69;10464358;28;20155;-69
2024/01/10 12:09:48;;;;;;;0.10;0.10;;;;;;;-145.06;100.00;55010.44;10457030;28;20021;-69
2024/01/10 12:14:51;;;;;;;0.00;0.00;;;;;;;-145.06;100.00;55036.75;10458504;28;20054;-69
2024/01/10 12:19:51;;;;;;;0.00;0.00;;;;;;;-145.06;100.00;55038.78;10451268;28;20125;-69
2024/01/10 12:24:52;;;;;;;0.05;0.05;;;;;;;-145.06;100.00;55046.91;10463600;28;20074;-69
2024/01/10 12:29:52;;;;;;;0.00;0.00;;;;;;;-145.06;100.00;55012.47;10465204;28;20794;-69
2024/01/10 12:35:03;;;;;;;0.00;0.00;;;;;;;-145.06;100.00;55022.59;10468824;28;20093;-69
2024/01/10 12:40:04;;;;;;;0.00;0.00;;;;;;;-145.06;100.00;54990.19;10462675;28;20078;-69
2024/01/10 12:45:05;;;;;;;0.00;0.00;;;;;;;-145.06;100.00;54994.22;10466349;28;20089;-69
2024/01/10 12:50:07;;;;;;;0.00;0.00;;;;;;;-145.06;100.00;55022.59;10438397;28;20050;-69
2024/01/10 12:55:08;;;;;;;0.10;0.10;;;;;;;-145.06;100.00;55004.34;10456065;28;20043;-69
2024/01/10 13:00:09;;;;;;;0.00;0.00;;;;;;;-145.06;100.00;55050.94;10468178;28;20475;-69
2024/01/10 13:05:09;;;;;;;0.10;0.10;;;;;;;-145.06;100.00;55022.59;10451889;28;20033;-69
2024/01/10 13:10:09;;;;;;;0.00;0.00;;;;;;;-145.06;100.00;55055.00;10472785;28;20115;-69
2024/01/10 13:15:10;;;;;;;0.00;0.00;;;;;;;-145.06;100.00;55012.47;10459237;28;20021;-69
2024/01/10 13:20:11;;;;;;;0.10;0.10;;;;;;;-145.06;100.00;55030.69;10463162;28;20021;-69
2024/01/10 13:25:11;;;;;;;0.00;0.00;;;;;;;-145.06;100.00;55018.53;10444514;28;20033;-69
2024/01/10 13:30:12;;;;;;;0.10;0.10;;;;;;;-145.06;100.00;55038.78;10460236;28;20025;-69
2024/01/10 13:35:13;;;;;;;0.10;0.10;;;;;;;-145.06;100.00;55059.03;10458807;28;20029;-69
2024/01/10 13:40:14;;;;;;;0.10;0.10;;;;;;;-145.06;100.00;55089.44;10458174;28;20429;-69
2024/01/10 13:45:14;;;;;;;0.10;0.10;;;;;;;-145.06;100.00;55089.44;10463633;28;20035;-69
2024/01/10 13:50:16;;;;;;;0.10;0.10;;;;;;;-145.06;100.00;55075.25;10466006;28;20441;-69
2024/01/10 13:55:16;;;;;;;0.10;0.10;;;;;;;-145.06;100.00;55091.47;10458596;28;20029;-69
2024/01/10 14:00:18;;;;;;;0.10;0.10;;;;;;;-145.06;100.00;55119.81;10467035;28;20028;-69
2024/01/10 14:05:19;;;;;;;0.10;0.10;;;;;;;-145.06;100.00;55144.13;10458989;28;20271;-69
2024/01/10 14:10:19;;;;;;;0.00;0.00;;;;;;;-145.06;100.00;55107.66;10464975;28;20093;-69
2024/01/10 14:15:20;;;;;;;0.00;0.00;;;;;;;-145.06;100.00;55146.16;10462149;28;20024;-69
2024/01/10 14:20:21;;;;;;;0.10;0.10;;;;;;;-145.06;100.00;55142.09;10461540;28;20470;-69
2024/01/10 14:25:21;;;;;;;0.10;0.10;;;;;;;-145.06;100.00;55144.13;10464760;28;20035;-69
2024/01/10 14:30:21;;;;;;;0.10;0.10;;;;;;;-145.06;100.00;55144.13;10470918;28;20482;-69
2024/01/10 14:35:22;;;;;;;0.10;0.10;;;;;;;-145.06;100.00;55144.13;10456204;28;20028;-70
2024/01/10 14:40:23;;;;;;;0.10;0.10;;;;;;;-145.06;100.00;55160.34;10462296;28;20024;-69
2024/01/10 14:45:24;;;;;;;0.10;0.10;;;;;;;-145.06;100.00;55152.22;10464984;28;20035;-70
2024/01/10 14:50:24;;;;;;;0.10;0.10;;;;;;;-145.06;100.00;55162.38;10458352;28;20035;-70
2024/01/10 14:55:25;;;;;;;0.10;0.10;;;;;;;-145.06;100.00;55160.34;10456213;28;20517;-70
2024/01/10 15:00:25;;;;;;;0.20;0.20;;;;;;;-145.06;100.00;55148.19;10456875;28;20036;-70
2024/01/10 15:05:26;;;;;;;0.10;0.10;;;;;;;-145.06;100.00;55180.59;10453041;28;20125;-70
2024/01/10 15:10:28;;;;;;;0.20;0.20;;;;;;;-145.06;100.00;55162.38;10455967;28;20132;-70
2024/01/10 15:15:28;;;;;;;0.10;0.10;;;;;;;-145.06;100.00;55150.22;10454422;28;20021;-70
2024/01/10 15:20:28;;;;;;;0.10;0.10;;;;;;;-145.06;100.00;55225.16;10457126;28;20017;-70
2024/01/10 15:25:29;;;;;;;0.20;0.20;;;;;;;-145.06;100.00;55198.81;10454993;28;20063;-70
2024/01/10 15:30:31;;;;;;;0.10;0.10;;;;;;;-145.06;100.00;55144.13;10453431;28;20283;-70
2024/01/10 15:35:31;;;;;;;0.15;0.15;;;;;;;-145.06;100.00;55206.94;10456546;28;20262;-70
2024/01/10 15:40:32;;;;;;;0.10;0.10;;;;;;;-145.06;100.00;55210.97;10455859;28;20051;-70
2024/01/10 15:45:33;;;;;;;0.20;0.20;;;;;;;-145.06;100.00;55217.06;10455202;28;20082;-70
2024/01/10 15:50:34;;;;;;;0.05;0.05;;;;;;;-145.06;100.00;55221.13;10453206;28;20028;-70
2024/01/10 15:55:36;;;;;;;0.10;0.10;;;;;;;-145.06;100.00;55206.94;10441404;28;20029;-70
2024/01/10 16:00:36;;;;;;;0.20;0.20;;;;;;;-145.06;100.00;55213.00;10458405;28;20263;-70
2024/01/10 16:05:36;;;;;;;0.10;0.10;;;;;;;-145.06;100.00;55206.94;10461137;28;20046;-70
2024/01/10 16:10:37;;;;;;;0.20;0.20;;;;;;;-145.06;100.00;55217.06;10466203;28;20025;-70
2024/01/10 16:15:38;;;;;;;0.05;0.05;;;;;;;-145.06;100.00;55210.97;10450187;28;20028;-70
2024/01/10 16:20:38;;;;;;;0.17;0.17;;;;;;;-145.06;100.00;55180.59;10459755;28;20029;-70
2024/01/10 16:25:39;;;;;;;0.13;0.13;;;;;;;-145.06;100.00;55213.00;10464075;28;20021;-70
2024/01/10 16:30:39;;;;;;;0.10;0.10;;;;;;;-145.06;100.00;55229.22;10461623;28;20028;-70
2024/01/10 16:35:39;;;;;;;0.20;0.20;;;;;;;-145.06;100.00;55204.91;10463390;28;20033;-70
2024/01/10 16:40:40;;;;;;;0.10;0.10;;;;;;;-145.06;100.00;55213.00;10443283;28;20640;-71
2024/01/10 16:45:40;;;;;;;0.20;0.20;;;;;;;-145.06;100.00;55202.88;10444110;28;20478;-71
2024/01/10 16:50:40;;;;;;;0.13;0.13;;;;;;;-145.06;100.00;55206.94;10456650;28;20021;-71
2024/01/10 16:55:41;;;;;;;0.20;0.20;;;;;;;-145.06;100.00;55184.66;10458663;28;20032;-71
2024/01/10 17:00:41;;;;;;;0.10;0.10;;;;;;;-145.06;100.00;55225.16;10464939;28;20262;-71
2024/01/10 17:05:42;;;;;;;0.20;0.20;;;;;;;-145.06;100.00;55184.66;10456540;28;20394;-71
2024/01/10 17:10:43;;;;;;;0.20;0.20;;;;;;;-145.06;100.00;55190.72;10463355;28;20029;-70
2024/01/10 17:15:43;;;;;;;0.28;0.28;;;;;;;-145.06;100.00;55172.50;10468265;28;20452;-71
2024/01/10 17:20:43;;;;;;;0.15;0.15;;;;;;;-145.06;100.00;55162.38;10460411;28;20013;-71
2024/01/10 17:25:43;;;;;;;0.10;0.10;;;;;;;-145.06;100.00;55178.56;10445889;28;20048;-70
2024/01/10 17:30:44;;;;;;;0.10;0.10;;;;;;;-145.06;100.00;55192.75;10464274;28;20071;-70
2024/01/10 17:35:44;;;;;;;0.15;0.15;;;;;;;-145.06;100.00;55158.31;10455384;28;20297;-70
2024/01/10 17:40:45;;;;;;;0.20;0.20;;;;;;;-145.06;100.00;55182.63;10445640;28;20017;-70
2024/01/10 17:45:45;;;;;;;0.08;0.08;;;;;;;-145.06;100.00;55164.38;10455217;28;20021;-70
2024/01/10 17:50:46;;;;;;;0.10;0.10;;;;;;;-145.06;100.00;55138.06;10463604;28;20020;-70
2024/01/10 17:55:46;;;;;;;0.20;0.20;;;;;;;-145.06;100.00;55136.03;10456994;28;20119;-70
2024/01/10 18:00:46;;;;;;;0.20;0.20;;;;;;;-145.06;100.00;55134.00;10463284;28;20394;-70
2024/01/10 18:05:46;;;;;;;0.20;0.20;;;;;;;-145.06;100.00;55154.25;10463410;28;20263;-70
2024/01/10 18:10:48;;;;;;;0.10;0.10;;;;;;;-145.06;100.00;55144.13;10448674;28;20425;-70
2024/01/10 18:15:48;;;;;;;0.10;0.10;;;;;;;-145.06;100.00;55121.84;10450722;28;20025;-70
2024/01/10 18:20:48;;;;;;;0.10;0.10;;;;;;;-145.06;100.00;55144.13;10459840;28;20386;-70
2024/01/10 18:25:49;;;;;;;0.20;0.20;;;;;;;-145.06;100.00;55121.84;10460892;28;20016;-70
2024/01/10 18:30:49;;;;;;;0.10;0.10;;;;;;;-145.06;100.00;55131.97;10463853;28;20332;-70
2024/01/10 18:35:51;;;;;;;0.10;0.10;;;;;;;-145.06;100.00;55131.97;10462324;28;20031;-70
2024/01/10 18:40:52;;;;;;;0.10;0.10;;;;;;;-145.06;100.00;55136.03;10467914;28;20016;-69
2024/01/10 18:45:52;;;;;;;0.17;0.17;;;;;;;-145.06;100.00;55107.66;10460511;28;20428;-70
2024/01/10 18:50:52;;;;;;;0.10;0.10;;;;;;;-145.06;100.00;55136.03;10455545;28;20021;-70
2024/01/10 18:55:54;;;;;;;0.15;0.15;;;;;;;-145.06;100.00;55103.63;10441265;28;20024;-70
2024/01/10 19:00:55;;;;;;;0.10;0.10;;;;;;;-145.06;100.00;55121.84;10448253;28;20187;-71
2024/01/10 19:05:55;;;;;;;0.10;0.10;;;;;;;-145.06;100.00;55119.81;10456371;28;20406;-71
2024/01/10 19:10:55;;;;;;;0.10;0.10;;;;;;;-145.06;100.00;55087.41;10453379;28;20013;-71
2024/01/10 19:15:55;;;;;;;0.13;0.13;;;;;;;-145.06;100.00;55117.78;10461451;28;20025;-70
2024/01/10 19:20:56;;;;;;;0.05;0.05;;;;;;;-145.06;100.00;55097.53;10462252;28;20021;-71
2024/01/10 19:25:57;;;;;;;0.17;0.17;;;;;;;-145.06;100.00;55125.91;10461573;28;20028;-71
2024/01/10 19:30:58;;;;;;;0.10;0.10;;;;;;;-145.06;100.00;55123.88;10457405;28;20025;-71
2024/01/10 19:35:58;;;;;;;0.10;0.10;;;;;;;-145.06;100.00;55111.72;10459916;28;20067;-71
2024/01/10 19:40:58;;;;;;;0.10;0.10;;;;;;;-145.06;100.00;55105.63;10452543;28;20017;-71
2024/01/10 19:45:59;;;;;;;0.10;0.10;;;;;;;-145.06;100.00;55101.59;10447956;28;20024;-71
2024/01/10 19:50:59;;;;;;;0.10;0.10;;;;;;;-145.06;100.00;55075.25;10468444;28;20104;-71
2024/01/10 19:55:59;;;;;;;0.10;0.10;;;;;;;-145.06;100.00;55087.41;10466380;28;20265;-70
2024/01/10 20:01:00;;;;;;;0.20;0.20;;;;;;;-145.06;100.00;55091.47;10467007;28;20375;-71
2024/01/10 20:06:01;;;;;;;0.10;0.10;;;;;;;-145.06;100.00;55087.41;10467186;28;20266;-71
2024/01/10 20:11:01;;;;;;;0.00;0.00;;;;;;;-145.06;100.00;55083.34;10447297;28;20636;-71
2024/01/10 20:16:03;;;;;;;0.10;0.10;;;;;;;-145.06;100.00;55077.28;10467623;28;20020;-71
2024/01/10 20:21:05;;;;;;;0.10;0.10;;;;;;;-145.06;100.00;55113.75;10472904;28;20027;-71
2024/01/10 20:26:05;;;;;;;0.10;0.10;;;;;;;-145.06;100.00;55055.00;10461208;28;20509;-71
2024/01/10 20:31:06;;;;;;;0.17;0.17;;;;;;;-145.06;100.00;55055.00;10465849;28;20020;-71
2024/01/10 20:36:06;;;;;;;0.10;0.10;;;;;;;-145.06;100.00;55081.34;10464396;28;20029;-71
2024/01/10 20:41:07;;;;;;;0.15;0.15;;;;;;;-145.06;100.00;55083.34;10463232;28;20097;-71
2024/01/10 20:46:07;;;;;;;0.00;0.00;;;;;;;-145.06;100.00;55095.50;10469558;28;20524;-70
2024/01/10 20:51:07;;;;;;;0.10;0.10;;;;;;;-145.06;100.00;55083.34;10465677;28;20371;-71
2024/01/10 20:56:08;;;;;;;0.03;0.03;;;;;;;-145.06;100.00;55097.53;10465967;28;20381;-71
2024/01/10 21:01:10;;;;;;;0.03;0.03;;;;;;;-145.06;100.00;55101.59;10449608;28;20020;-71
2024/01/10 21:06:10;;;;;;;0.00;0.00;;;;;;;-145.06;100.00;55105.63;10461545;28;20048;-70
2024/01/10 21:11:11;;;;;;;0.10;0.10;;;;;;;-145.06;100.00;55087.41;10439535;28;20037;-71
2024/01/10 21:16:11;;;;;;;0.00;0.00;;;;;;;-145.06;100.00;55103.63;10463257;28;20749;-71
2024/01/10 21:21:11;;;;;;;0.03;0.03;;;;;;;-145.06;100.00;55073.22;10467059;28;20032;-71
2024/01/10 21:26:12;;;;;;;0.10;0.10;;;;;;;-145.06;100.00;55089.44;10466420;28;20122;-71
2024/01/10 21:31:12;;;;;;;0.00;0.00;;;;;;;-145.06;100.00;55099.56;10468147;28;20090;-71
2024/01/10 21:36:12;;;;;;;0.10;0.10;;;;;;;-145.06;100.00;55103.63;10458184;28;20021;-71
2024/01/10 21:41:13;;;;;;;0.10;0.10;;;;;;;-145.06;100.00;55119.81;10467687;28;20017;-71
2024/01/10 21:46:13;;;;;;;0.10;0.10;;;;;;;-145.06;100.00;55099.56;10458106;28;20413;-71
2024/01/10 21:51:13;;;;;;;0.10;0.10;;;;;;;-145.06;100.00;55097.53;10444746;28;20279;-71
2024/01/10 21:56:14;;;;;;;0.10;0.10;;;;;;;-145.06;100.00;55103.63;10459921;28;20032;-71
2024/01/10 22:01:14;;;;;;;0.10;0.10;;;;;;;-145.06;100.00;55091.47;10466743;28;20017;-70
2024/01/10 22:06:14;;;;;;;0.10;0.10;;;;;;;-145.06;100.00;55103.63;10458469;28;20068;-71
2024/01/10 22:11:14;;;;;;;0.10;0.10;;;;;;;-145.06;100.00;55162.38;10464452;28;20286;-71
2024/01/10 22:16:15;;;;;;;0.10;0.10;;;;;;;-145.06;100.00;55091.47;10444139;28;20025;-71
2024/01/10 22:21:15;;;;;;;0.00;0.00;;;;;;;-145.06;100.00;55146.16;10460823;28;20317;-71
2024/01/10 22:26:15;;;;;;;0.03;0.03;;;;;;;-145.06;100.00;55095.50;10462788;28;20029;-70
2024/01/10 22:31:16;;;;;;;0.00;0.00;;;;;;;-145.06;100.00;55117.78;10463619;28;20051;-71